sensor_id;sensor_type;location;lat;lon;timestamp;P1;durP1;ratioP1;P2;durP2;ratioP2
31390;SDS011;18022;45.492;11.548;2022-11-13T00:01:59;12.88;;;10.80;;
31390;SDS011;18022;45.492;11.548;2022-11-13T00:04:24;12.48;;;9.73;;
31390;SDS011;18022;45.492;11.548;2022-11-13T00:06:50;14.60;;;9.68;;
31390;SDS011;18022;45.492;11.548;2022-11-13T00:09:16;13.48;;;9.32;;
31390;SDS011;18022;45.492;11.548;2022-11-13T00:11:41;13.63;;;9.32;;
31390;SDS011;18022;45.492;11.548;2022-11-13T00:14:07;12.43;;;9.23;;
31390;SDS011;18022;45.492;11.548;2022-11-13T00:16:33;11.88;;;9.30;;
31390;SDS011;18022;45.492;11.548;2022-11-13T00:18:58;13.57;;;9.75;;
31390;SDS011;18022;45.492;11.548;2022-11-13T00:21:24;13.00;;;9.55;;
31390;SDS011;18022;45.492;11.548;2022-11-13T00:23:54;13.88;;;9.38;;
31390;SDS011;18022;45.492;11.548;2022-11-13T00:26:24;11.45;;;8.35;;
31390;SDS011;18022;45.492;11.548;2022-11-13T00:28:52;12.07;;;8.75;;
31390;SDS011;18022;45.492;11.548;2022-11-13T00:31:26;9.57;;;8.48;;
31390;SDS011;18022;45.492;11.548;2022-11-13T00:33:52;11.50;;;8.27;;
31390;SDS011;18022;45.492;11.548;2022-11-13T00:36:22;9.13;;;8.18;;
31390;SDS011;18022;45.492;11.548;2022-11-13T00:38:49;9.75;;;8.30;;
31390;SDS011;18022;45.492;11.548;2022-11-13T00:41:16;10.93;;;8.40;;
31390;SDS011;18022;45.492;11.548;2022-11-13T00:43:41;9.43;;;7.70;;
31390;SDS011;18022;45.492;11.548;2022-11-13T00:46:07;8.88;;;6.50;;
31390;SDS011;18022;45.492;11.548;2022-11-13T00:48:34;10.27;;;6.70;;
31390;SDS011;18022;45.492;11.548;2022-11-13T00:51:01;8.20;;;6.80;;
31390;SDS011;18022;45.492;11.548;2022-11-13T00:53:27;8.48;;;6.10;;
31390;SDS011;18022;45.492;11.548;2022-11-13T00:55:53;7.55;;;6.05;;
31390;SDS011;18022;45.492;11.548;2022-11-13T00:58:19;13.45;;;8.23;;
31390;SDS011;18022;45.492;11.548;2022-11-13T01:00:45;8.90;;;7.15;;
31390;SDS011;18022;45.492;11.548;2022-11-13T01:03:12;9.50;;;6.87;;
31390;SDS011;18022;45.492;11.548;2022-11-13T01:05:39;7.93;;;6.30;;
31390;SDS011;18022;45.492;11.548;2022-11-13T01:08:07;7.63;;;6.60;;
31390;SDS011;18022;45.492;11.548;2022-11-13T01:10:34;8.40;;;5.95;;
31390;SDS011;18022;45.492;11.548;2022-11-13T01:13:04;7.40;;;5.80;;
31390;SDS011;18022;45.492;11.548;2022-11-13T01:15:30;9.30;;;7.10;;
31390;SDS011;18022;45.492;11.548;2022-11-13T01:17:55;8.65;;;6.40;;
31390;SDS011;18022;45.492;11.548;2022-11-13T01:20:22;11.35;;;6.43;;
31390;SDS011;18022;45.492;11.548;2022-11-13T01:22:48;8.10;;;6.53;;
31390;SDS011;18022;45.492;11.548;2022-11-13T01:25:14;8.43;;;6.20;;
31390;SDS011;18022;45.492;11.548;2022-11-13T01:27:41;8.10;;;5.50;;
31390;SDS011;18022;45.492;11.548;2022-11-13T01:30:06;6.78;;;5.47;;
31390;SDS011;18022;45.492;11.548;2022-11-13T01:32:33;6.05;;;5.13;;
31390;SDS011;18022;45.492;11.548;2022-11-13T01:34:58;8.15;;;5.18;;
31390;SDS011;18022;45.492;11.548;2022-11-13T01:37:24;7.03;;;5.30;;
31390;SDS011;18022;45.492;11.548;2022-11-13T01:39:50;10.75;;;5.45;;
31390;SDS011;18022;45.492;11.548;2022-11-13T01:42:16;5.93;;;4.57;;
31390;SDS011;18022;45.492;11.548;2022-11-13T01:44:49;5.82;;;4.50;;
31390;SDS011;18022;45.492;11.548;2022-11-13T01:47:16;5.38;;;4.78;;
31390;SDS011;18022;45.492;11.548;2022-11-13T01:49:44;14.10;;;4.53;;
31390;SDS011;18022;45.492;11.548;2022-11-13T01:52:17;10.80;;;4.55;;
31390;SDS011;18022;45.492;11.548;2022-11-13T01:57:12;5.10;;;4.50;;
31390;SDS011;18022;45.492;11.548;2022-11-13T01:59:40;4.70;;;4.25;;
31390;SDS011;18022;45.492;11.548;2022-11-13T02:02:11;4.65;;;3.58;;
31390;SDS011;18022;45.492;11.548;2022-11-13T02:04:37;10.40;;;4.55;;
31390;SDS011;18022;45.492;11.548;2022-11-13T02:07:04;6.63;;;4.15;;
31390;SDS011;18022;45.492;11.548;2022-11-13T02:09:37;4.40;;;3.70;;
31390;SDS011;18022;45.492;11.548;2022-11-13T02:12:06;4.57;;;4.03;;
31390;SDS011;18022;45.492;11.548;2022-11-13T02:14:35;4.10;;;3.65;;
31390;SDS011;18022;45.492;11.548;2022-11-13T02:17:05;6.78;;;4.22;;
31390;SDS011;18022;45.492;11.548;2022-11-13T02:19:35;4.20;;;3.70;;
31390;SDS011;18022;45.492;11.548;2022-11-13T02:22:07;7.90;;;4.20;;
31390;SDS011;18022;45.492;11.548;2022-11-13T02:24:37;6.90;;;3.83;;
31390;SDS011;18022;45.492;11.548;2022-11-13T02:27:07;5.15;;;4.20;;
31390;SDS011;18022;45.492;11.548;2022-11-13T02:29:37;5.22;;;4.03;;
31390;SDS011;18022;45.492;11.548;2022-11-13T02:32:03;8.75;;;4.20;;
31390;SDS011;18022;45.492;11.548;2022-11-13T02:34:28;10.30;;;4.43;;
31390;SDS011;18022;45.492;11.548;2022-11-13T02:36:54;5.00;;;3.90;;
31390;SDS011;18022;45.492;11.548;2022-11-13T02:39:20;5.43;;;4.00;;
31390;SDS011;18022;45.492;11.548;2022-11-13T02:41:45;5.80;;;3.92;;
31390;SDS011;18022;45.492;11.548;2022-11-13T02:44:11;5.43;;;3.63;;
31390;SDS011;18022;45.492;11.548;2022-11-13T02:46:37;6.88;;;3.85;;
31390;SDS011;18022;45.492;11.548;2022-11-13T02:49:02;7.05;;;4.05;;
31390;SDS011;18022;45.492;11.548;2022-11-13T02:51:29;5.15;;;4.00;;
31390;SDS011;18022;45.492;11.548;2022-11-13T02:53:55;6.00;;;3.90;;
31390;SDS011;18022;45.492;11.548;2022-11-13T02:56:21;4.95;;;3.95;;
31390;SDS011;18022;45.492;11.548;2022-11-13T02:58:46;5.35;;;3.72;;
31390;SDS011;18022;45.492;11.548;2022-11-13T03:01:12;4.30;;;3.78;;
31390;SDS011;18022;45.492;11.548;2022-11-13T03:03:38;5.50;;;3.70;;
31390;SDS011;18022;45.492;11.548;2022-11-13T03:06:03;5.07;;;4.55;;
31390;SDS011;18022;45.492;11.548;2022-11-13T03:08:29;5.68;;;4.53;;
31390;SDS011;18022;45.492;11.548;2022-11-13T03:10:56;6.00;;;4.18;;
31390;SDS011;18022;45.492;11.548;2022-11-13T03:13:21;5.35;;;4.32;;
31390;SDS011;18022;45.492;11.548;2022-11-13T03:15:47;5.22;;;4.35;;
31390;SDS011;18022;45.492;11.548;2022-11-13T03:18:12;5.38;;;4.45;;
31390;SDS011;18022;45.492;11.548;2022-11-13T03:20:40;6.63;;;4.70;;
31390;SDS011;18022;45.492;11.548;2022-11-13T03:23:07;5.15;;;4.60;;
31390;SDS011;18022;45.492;11.548;2022-11-13T03:25:33;6.00;;;4.78;;
31390;SDS011;18022;45.492;11.548;2022-11-13T03:27:59;6.45;;;4.00;;
31390;SDS011;18022;45.492;11.548;2022-11-13T03:30:26;6.10;;;4.47;;
31390;SDS011;18022;45.492;11.548;2022-11-13T03:32:52;4.38;;;3.90;;
31390;SDS011;18022;45.492;11.548;2022-11-13T03:35:19;7.00;;;4.32;;
31390;SDS011;18022;45.492;11.548;2022-11-13T03:37:46;7.45;;;4.50;;
31390;SDS011;18022;45.492;11.548;2022-11-13T03:40:11;4.65;;;3.97;;
31390;SDS011;18022;45.492;11.548;2022-11-13T03:42:37;6.15;;;4.13;;
31390;SDS011;18022;45.492;11.548;2022-11-13T03:45:03;9.18;;;5.10;;
31390;SDS011;18022;45.492;11.548;2022-11-13T03:47:29;5.53;;;4.07;;
31390;SDS011;18022;45.492;11.548;2022-11-13T03:49:54;5.38;;;4.20;;
31390;SDS011;18022;45.492;11.548;2022-11-13T03:52:20;5.18;;;4.20;;
31390;SDS011;18022;45.492;11.548;2022-11-13T03:54:46;6.15;;;4.03;;
31390;SDS011;18022;45.492;11.548;2022-11-13T03:57:11;6.38;;;3.50;;
31390;SDS011;18022;45.492;11.548;2022-11-13T03:59:37;5.03;;;3.90;;
31390;SDS011;18022;45.492;11.548;2022-11-13T04:02:02;5.22;;;3.63;;
31390;SDS011;18022;45.492;11.548;2022-11-13T04:04:28;8.15;;;4.40;;
31390;SDS011;18022;45.492;11.548;2022-11-13T04:06:54;7.78;;;4.18;;
31390;SDS011;18022;45.492;11.548;2022-11-13T04:09:20;7.68;;;4.43;;
31390;SDS011;18022;45.492;11.548;2022-11-13T04:11:45;5.32;;;4.20;;
31390;SDS011;18022;45.492;11.548;2022-11-13T04:14:11;10.63;;;4.55;;
31390;SDS011;18022;45.492;11.548;2022-11-13T04:16:37;5.90;;;3.83;;
31390;SDS011;18022;45.492;11.548;2022-11-13T04:19:02;5.30;;;3.95;;
31390;SDS011;18022;45.492;11.548;2022-11-13T04:21:28;5.97;;;4.10;;
31390;SDS011;18022;45.492;11.548;2022-11-13T04:23:54;5.82;;;3.88;;
31390;SDS011;18022;45.492;11.548;2022-11-13T04:26:19;5.97;;;4.30;;
31390;SDS011;18022;45.492;11.548;2022-11-13T04:28:45;7.93;;;4.35;;
31390;SDS011;18022;45.492;11.548;2022-11-13T04:31:11;4.70;;;4.10;;
31390;SDS011;18022;45.492;11.548;2022-11-13T04:33:37;5.90;;;4.00;;
31390;SDS011;18022;45.492;11.548;2022-11-13T04:36:02;5.75;;;3.63;;
31390;SDS011;18022;45.492;11.548;2022-11-13T04:38:28;4.85;;;3.63;;
31390;SDS011;18022;45.492;11.548;2022-11-13T04:40:54;3.97;;;3.55;;
31390;SDS011;18022;45.492;11.548;2022-11-13T04:43:39;6.30;;;3.65;;
31390;SDS011;18022;45.492;11.548;2022-11-13T04:46:05;6.20;;;4.30;;
31390;SDS011;18022;45.492;11.548;2022-11-13T04:48:31;6.03;;;4.28;;
31390;SDS011;18022;45.492;11.548;2022-11-13T04:50:57;7.20;;;4.15;;
31390;SDS011;18022;45.492;11.548;2022-11-13T04:53:23;4.38;;;3.60;;
31390;SDS011;18022;45.492;11.548;2022-11-13T04:55:50;5.32;;;4.00;;
31390;SDS011;18022;45.492;11.548;2022-11-13T04:58:17;6.38;;;4.10;;
31390;SDS011;18022;45.492;11.548;2022-11-13T05:00:43;4.45;;;4.05;;
31390;SDS011;18022;45.492;11.548;2022-11-13T05:03:08;4.70;;;3.85;;
31390;SDS011;18022;45.492;11.548;2022-11-13T05:05:34;5.80;;;3.60;;
31390;SDS011;18022;45.492;11.548;2022-11-13T05:08:00;5.22;;;4.10;;
31390;SDS011;18022;45.492;11.548;2022-11-13T05:10:25;6.53;;;3.70;;
31390;SDS011;18022;45.492;11.548;2022-11-13T05:12:54;5.68;;;3.95;;
31390;SDS011;18022;45.492;11.548;2022-11-13T05:15:20;3.90;;;3.38;;
31390;SDS011;18022;45.492;11.548;2022-11-13T05:17:47;6.25;;;3.92;;
31390;SDS011;18022;45.492;11.548;2022-11-13T05:20:13;5.60;;;4.30;;
31390;SDS011;18022;45.492;11.548;2022-11-13T05:22:39;4.80;;;3.92;;
31390;SDS011;18022;45.492;11.548;2022-11-13T05:25:05;5.32;;;4.10;;
31390;SDS011;18022;45.492;11.548;2022-11-13T05:27:30;5.03;;;3.88;;
31390;SDS011;18022;45.492;11.548;2022-11-13T05:29:56;4.65;;;3.85;;
31390;SDS011;18022;45.492;11.548;2022-11-13T05:32:22;6.60;;;3.92;;
31390;SDS011;18022;45.492;11.548;2022-11-13T05:34:47;4.75;;;4.35;;
31390;SDS011;18022;45.492;11.548;2022-11-13T05:37:13;8.68;;;4.47;;
31390;SDS011;18022;45.492;11.548;2022-11-13T05:39:39;5.53;;;4.28;;
31390;SDS011;18022;45.492;11.548;2022-11-13T05:42:04;5.15;;;3.67;;
31390;SDS011;18022;45.492;11.548;2022-11-13T05:44:30;4.35;;;3.70;;
31390;SDS011;18022;45.492;11.548;2022-11-13T05:46:56;5.28;;;3.08;;
31390;SDS011;18022;45.492;11.548;2022-11-13T05:49:21;3.90;;;3.42;;
31390;SDS011;18022;45.492;11.548;2022-11-13T05:51:47;5.60;;;3.60;;
31390;SDS011;18022;45.492;11.548;2022-11-13T05:54:13;10.68;;;4.10;;
31390;SDS011;18022;45.492;11.548;2022-11-13T05:56:39;7.47;;;3.88;;
31390;SDS011;18022;45.492;11.548;2022-11-13T05:59:04;4.85;;;3.35;;
31390;SDS011;18022;45.492;11.548;2022-11-13T06:01:31;5.45;;;3.67;;
31390;SDS011;18022;45.492;11.548;2022-11-13T06:03:59;5.18;;;3.90;;
31390;SDS011;18022;45.492;11.548;2022-11-13T06:06:26;4.20;;;3.80;;
31390;SDS011;18022;45.492;11.548;2022-11-13T06:08:53;5.38;;;3.78;;
31390;SDS011;18022;45.492;11.548;2022-11-13T06:11:21;3.70;;;3.40;;
31390;SDS011;18022;45.492;11.548;2022-11-13T06:13:48;4.72;;;3.53;;
31390;SDS011;18022;45.492;11.548;2022-11-13T06:16:15;4.43;;;3.78;;
31390;SDS011;18022;45.492;11.548;2022-11-13T06:18:49;4.68;;;3.58;;
31390;SDS011;18022;45.492;11.548;2022-11-13T06:21:19;5.65;;;3.83;;
31390;SDS011;18022;45.492;11.548;2022-11-13T06:23:46;4.50;;;3.70;;
31390;SDS011;18022;45.492;11.548;2022-11-13T06:26:13;4.43;;;3.13;;
31390;SDS011;18022;45.492;11.548;2022-11-13T06:28:41;3.38;;;3.10;;
31390;SDS011;18022;45.492;11.548;2022-11-13T06:31:08;5.00;;;3.30;;
31390;SDS011;18022;45.492;11.548;2022-11-13T06:33:37;3.92;;;3.47;;
31390;SDS011;18022;45.492;11.548;2022-11-13T06:36:05;4.72;;;3.30;;
31390;SDS011;18022;45.492;11.548;2022-11-13T06:38:39;12.07;;;3.78;;
31390;SDS011;18022;45.492;11.548;2022-11-13T06:41:06;4.73;;;3.50;;
31390;SDS011;18022;45.492;11.548;2022-11-13T06:43:34;5.65;;;3.60;;
31390;SDS011;18022;45.492;11.548;2022-11-13T06:46:07;5.43;;;3.05;;
31390;SDS011;18022;45.492;11.548;2022-11-13T06:48:39;3.30;;;2.97;;
31390;SDS011;18022;45.492;11.548;2022-11-13T06:51:05;8.40;;;3.30;;
31390;SDS011;18022;45.492;11.548;2022-11-13T06:53:34;5.85;;;3.75;;
31390;SDS011;18022;45.492;11.548;2022-11-13T06:56:00;5.25;;;3.22;;
31390;SDS011;18022;45.492;11.548;2022-11-13T06:58:26;3.83;;;3.53;;
31390;SDS011;18022;45.492;11.548;2022-11-13T07:00:51;8.30;;;3.20;;
31390;SDS011;18022;45.492;11.548;2022-11-13T07:03:18;3.65;;;3.20;;
31390;SDS011;18022;45.492;11.548;2022-11-13T07:05:45;4.65;;;3.38;;
31390;SDS011;18022;45.492;11.548;2022-11-13T07:08:12;3.65;;;3.33;;
31390;SDS011;18022;45.492;11.548;2022-11-13T07:10:38;4.32;;;3.65;;
31390;SDS011;18022;45.492;11.548;2022-11-13T07:13:04;3.85;;;3.45;;
31390;SDS011;18022;45.492;11.548;2022-11-13T07:15:36;4.15;;;3.70;;
31390;SDS011;18022;45.492;11.548;2022-11-13T07:18:03;4.35;;;3.80;;
31390;SDS011;18022;45.492;11.548;2022-11-13T07:20:30;6.15;;;3.90;;
31390;SDS011;18022;45.492;11.548;2022-11-13T07:22:56;10.23;;;5.18;;
31390;SDS011;18022;45.492;11.548;2022-11-13T07:25:23;5.97;;;4.82;;
31390;SDS011;18022;45.492;11.548;2022-11-13T07:27:49;5.75;;;4.60;;
31390;SDS011;18022;45.492;11.548;2022-11-13T07:30:15;9.05;;;4.00;;
31390;SDS011;18022;45.492;11.548;2022-11-13T07:32:41;5.03;;;3.72;;
31390;SDS011;18022;45.492;11.548;2022-11-13T07:35:07;11.60;;;4.82;;
31390;SDS011;18022;45.492;11.548;2022-11-13T07:37:33;4.50;;;3.63;;
31390;SDS011;18022;45.492;11.548;2022-11-13T07:39:59;4.05;;;3.67;;
31390;SDS011;18022;45.492;11.548;2022-11-13T07:42:25;5.65;;;3.53;;
31390;SDS011;18022;45.492;11.548;2022-11-13T07:44:51;4.65;;;3.40;;
31390;SDS011;18022;45.492;11.548;2022-11-13T07:47:16;4.63;;;3.53;;
31390;SDS011;18022;45.492;11.548;2022-11-13T07:49:42;5.05;;;3.83;;
31390;SDS011;18022;45.492;11.548;2022-11-13T07:52:08;6.75;;;4.32;;
31390;SDS011;18022;45.492;11.548;2022-11-13T07:54:34;5.75;;;3.25;;
31390;SDS011;18022;45.492;11.548;2022-11-13T07:56:59;5.88;;;3.95;;
31390;SDS011;18022;45.492;11.548;2022-11-13T07:59:25;6.63;;;3.65;;
31390;SDS011;18022;45.492;11.548;2022-11-13T08:01:50;5.47;;;3.95;;
31390;SDS011;18022;45.492;11.548;2022-11-13T08:04:16;4.38;;;3.95;;
31390;SDS011;18022;45.492;11.548;2022-11-13T08:06:42;5.32;;;4.50;;
31390;SDS011;18022;45.492;11.548;2022-11-13T08:09:07;5.10;;;4.60;;
31390;SDS011;18022;45.492;11.548;2022-11-13T08:11:33;5.30;;;4.60;;
31390;SDS011;18022;45.492;11.548;2022-11-13T08:13:59;6.28;;;5.00;;
31390;SDS011;18022;45.492;11.548;2022-11-13T08:16:25;7.13;;;5.07;;
31390;SDS011;18022;45.492;11.548;2022-11-13T08:18:51;11.02;;;5.43;;
31390;SDS011;18022;45.492;11.548;2022-11-13T08:21:17;5.93;;;4.80;;
31390;SDS011;18022;45.492;11.548;2022-11-13T08:23:45;5.72;;;4.50;;
31390;SDS011;18022;45.492;11.548;2022-11-13T08:26:12;9.43;;;5.20;;
31390;SDS011;18022;45.492;11.548;2022-11-13T08:28:37;7.20;;;5.18;;
31390;SDS011;18022;45.492;11.548;2022-11-13T08:31:08;7.82;;;5.50;;
31390;SDS011;18022;45.492;11.548;2022-11-13T08:33:37;5.70;;;4.82;;
31390;SDS011;18022;45.492;11.548;2022-11-13T08:36:03;8.27;;;5.43;;
31390;SDS011;18022;45.492;11.548;2022-11-13T08:38:29;10.90;;;5.35;;
31390;SDS011;18022;45.492;11.548;2022-11-13T08:40:55;5.72;;;4.85;;
31390;SDS011;18022;45.492;11.548;2022-11-13T08:43:25;7.10;;;5.40;;
31390;SDS011;18022;45.492;11.548;2022-11-13T08:45:51;7.03;;;5.50;;
31390;SDS011;18022;45.492;11.548;2022-11-13T08:48:17;8.88;;;5.32;;
31390;SDS011;18022;45.492;11.548;2022-11-13T08:50:43;9.43;;;5.32;;
31390;SDS011;18022;45.492;11.548;2022-11-13T08:53:10;6.28;;;5.10;;
31390;SDS011;18022;45.492;11.548;2022-11-13T08:55:35;7.30;;;5.25;;
31390;SDS011;18022;45.492;11.548;2022-11-13T08:58:02;9.20;;;4.72;;
31390;SDS011;18022;45.492;11.548;2022-11-13T09:00:29;8.13;;;4.70;;
31390;SDS011;18022;45.492;11.548;2022-11-13T09:02:56;7.53;;;4.90;;
31390;SDS011;18022;45.492;11.548;2022-11-13T09:05:23;6.10;;;4.30;;
31390;SDS011;18022;45.492;11.548;2022-11-13T09:07:49;7.72;;;4.75;;
31390;SDS011;18022;45.492;11.548;2022-11-13T09:10:16;5.45;;;4.55;;
31390;SDS011;18022;45.492;11.548;2022-11-13T09:12:42;5.55;;;5.00;;
31390;SDS011;18022;45.492;11.548;2022-11-13T09:15:08;10.65;;;5.90;;
31390;SDS011;18022;45.492;11.548;2022-11-13T09:17:35;6.65;;;5.95;;
31390;SDS011;18022;45.492;11.548;2022-11-13T09:20:01;8.23;;;6.05;;
31390;SDS011;18022;45.492;11.548;2022-11-13T09:22:27;6.63;;;5.57;;
31390;SDS011;18022;45.492;11.548;2022-11-13T09:24:53;8.82;;;6.70;;
31390;SDS011;18022;45.492;11.548;2022-11-13T09:27:18;8.25;;;6.82;;
31390;SDS011;18022;45.492;11.548;2022-11-13T09:29:44;10.95;;;7.03;;
31390;SDS011;18022;45.492;11.548;2022-11-13T09:32:10;8.10;;;6.50;;
31390;SDS011;18022;45.492;11.548;2022-11-13T09:34:35;8.13;;;7.03;;
31390;SDS011;18022;45.492;11.548;2022-11-13T09:37:01;11.48;;;6.95;;
31390;SDS011;18022;45.492;11.548;2022-11-13T09:39:27;22.25;;;15.88;;
31390;SDS011;18022;45.492;11.548;2022-11-13T09:41:54;12.65;;;8.57;;
31390;SDS011;18022;45.492;11.548;2022-11-13T09:47:00;11.60;;;9.00;;
31390;SDS011;18022;45.492;11.548;2022-11-13T09:49:52;10.55;;;8.20;;
31390;SDS011;18022;45.492;11.548;2022-11-13T09:55:18;11.48;;;8.50;;
31390;SDS011;18022;45.492;11.548;2022-11-13T09:57:50;7.20;;;6.50;;
31390;SDS011;18022;45.492;11.548;2022-11-13T10:00:36;10.82;;;8.63;;
31390;SDS011;18022;45.492;11.548;2022-11-13T10:05:55;9.40;;;8.27;;
31390;SDS011;18022;45.492;11.548;2022-11-13T10:10:54;8.55;;;6.97;;
31390;SDS011;18022;45.492;11.548;2022-11-13T10:13:30;8.37;;;6.77;;
31390;SDS011;18022;45.492;11.548;2022-11-13T10:19:10;8.85;;;7.57;;
31390;SDS011;18022;45.492;11.548;2022-11-13T10:21:44;7.38;;;6.65;;
31390;SDS011;18022;45.492;11.548;2022-11-13T10:24:49;13.45;;;8.20;;
31390;SDS011;18022;45.492;11.548;2022-11-13T10:27:17;9.23;;;8.02;;
31390;SDS011;18022;45.492;11.548;2022-11-13T10:29:43;10.38;;;9.00;;
31390;SDS011;18022;45.492;11.548;2022-11-13T10:32:14;9.68;;;8.00;;
31390;SDS011;18022;45.492;11.548;2022-11-13T10:34:40;11.00;;;8.18;;
31390;SDS011;18022;45.492;11.548;2022-11-13T10:37:19;11.07;;;8.98;;
31390;SDS011;18022;45.492;11.548;2022-11-13T10:40:05;9.45;;;7.80;;
31390;SDS011;18022;45.492;11.548;2022-11-13T10:42:35;12.25;;;10.02;;
31390;SDS011;18022;45.492;11.548;2022-11-13T10:45:16;11.88;;;10.00;;
31390;SDS011;18022;45.492;11.548;2022-11-13T10:47:47;10.40;;;9.15;;
31390;SDS011;18022;45.492;11.548;2022-11-13T10:50:19;17.95;;;14.70;;
31390;SDS011;18022;45.492;11.548;2022-11-13T10:52:48;14.07;;;11.32;;
31390;SDS011;18022;45.492;11.548;2022-11-13T10:58:01;17.25;;;14.20;;
31390;SDS011;18022;45.492;11.548;2022-11-13T11:00:35;10.57;;;9.52;;
31390;SDS011;18022;45.492;11.548;2022-11-13T11:05:31;12.45;;;8.57;;
31390;SDS011;18022;45.492;11.548;2022-11-13T11:07:57;9.55;;;8.25;;
31390;SDS011;18022;45.492;11.548;2022-11-13T11:10:33;10.85;;;8.23;;
31390;SDS011;18022;45.492;11.548;2022-11-13T11:15:38;9.73;;;8.60;;
31390;SDS011;18022;45.492;11.548;2022-11-13T11:20:49;8.32;;;7.53;;
31390;SDS011;18022;45.492;11.548;2022-11-13T11:25:55;11.32;;;8.88;;
31390;SDS011;18022;45.492;11.548;2022-11-13T11:31:52;10.27;;;8.77;;
31390;SDS011;18022;45.492;11.548;2022-11-13T11:47:51;8.57;;;7.72;;
31390;SDS011;18022;45.492;11.548;2022-11-13T11:50:23;12.47;;;8.43;;
31390;SDS011;18022;45.492;11.548;2022-11-13T11:58:12;10.55;;;8.82;;
31390;SDS011;18022;45.492;11.548;2022-11-13T12:00:43;10.57;;;9.38;;
31390;SDS011;18022;45.492;11.548;2022-11-13T12:14:49;9.02;;;6.65;;
31390;SDS011;18022;45.492;11.548;2022-11-13T12:25:37;9.77;;;7.82;;
31390;SDS011;18022;45.492;11.548;2022-11-13T12:28:19;7.75;;;6.90;;
31390;SDS011;18022;45.492;11.548;2022-11-13T12:36:49;8.45;;;6.80;;
31390;SDS011;18022;45.492;11.548;2022-11-13T12:47:33;11.48;;;8.60;;
31390;SDS011;18022;45.492;11.548;2022-11-13T12:52:30;8.73;;;7.20;;
31390;SDS011;18022;45.492;11.548;2022-11-13T12:55:06;10.90;;;7.65;;
31390;SDS011;18022;45.492;11.548;2022-11-13T12:57:48;17.05;;;9.38;;
31390;SDS011;18022;45.492;11.548;2022-11-13T13:00:35;10.98;;;8.35;;
31390;SDS011;18022;45.492;11.548;2022-11-13T13:03:45;9.02;;;8.10;;
31390;SDS011;18022;45.492;11.548;2022-11-13T13:15:03;8.55;;;7.20;;
31390;SDS011;18022;45.492;11.548;2022-11-13T13:19:40;8.90;;;7.93;;
31390;SDS011;18022;45.492;11.548;2022-11-13T13:25:03;9.70;;;6.90;;
31390;SDS011;18022;45.492;11.548;2022-11-13T13:27:32;9.25;;;8.25;;
31390;SDS011;18022;45.492;11.548;2022-11-13T13:30:13;10.32;;;7.93;;
31390;SDS011;18022;45.492;11.548;2022-11-13T13:41:10;12.00;;;8.32;;
31390;SDS011;18022;45.492;11.548;2022-11-13T13:46:28;19.67;;;8.40;;
31390;SDS011;18022;45.492;11.548;2022-11-13T13:48:56;13.55;;;8.32;;
31390;SDS011;18022;45.492;11.548;2022-11-13T13:51:36;47.92;;;11.55;;
31390;SDS011;18022;45.492;11.548;2022-11-13T13:54:24;17.42;;;8.55;;
31390;SDS011;18022;45.492;11.548;2022-11-13T13:56:54;10.27;;;9.15;;
31390;SDS011;18022;45.492;11.548;2022-11-13T14:02:01;9.48;;;8.48;;
31390;SDS011;18022;45.492;11.548;2022-11-13T14:04:32;13.32;;;10.18;;
31390;SDS011;18022;45.492;11.548;2022-11-13T14:07:00;13.50;;;10.35;;
31390;SDS011;18022;45.492;11.548;2022-11-13T14:09:27;12.88;;;11.23;;
31390;SDS011;18022;45.492;11.548;2022-11-13T14:12:04;15.75;;;10.70;;
31390;SDS011;18022;45.492;11.548;2022-11-13T14:14:32;10.15;;;9.13;;
31390;SDS011;18022;45.492;11.548;2022-11-13T14:16:59;14.85;;;11.63;;
31390;SDS011;18022;45.492;11.548;2022-11-13T14:19:25;18.95;;;14.63;;
31390;SDS011;18022;45.492;11.548;2022-11-13T14:21:52;17.85;;;14.40;;
31390;SDS011;18022;45.492;11.548;2022-11-13T14:27:23;12.23;;;10.80;;
31390;SDS011;18022;45.492;11.548;2022-11-13T14:29:51;11.48;;;10.27;;
31390;SDS011;18022;45.492;11.548;2022-11-13T14:32:21;13.57;;;10.43;;
31390;SDS011;18022;45.492;11.548;2022-11-13T14:34:59;12.13;;;10.73;;
31390;SDS011;18022;45.492;11.548;2022-11-13T14:37:31;12.63;;;10.63;;
31390;SDS011;18022;45.492;11.548;2022-11-13T14:39:58;17.65;;;10.93;;
31390;SDS011;18022;45.492;11.548;2022-11-13T14:45:04;16.98;;;13.65;;
31390;SDS011;18022;45.492;11.548;2022-11-13T14:48:14;13.68;;;11.45;;
31390;SDS011;18022;45.492;11.548;2022-11-13T14:50:53;16.90;;;12.50;;
31390;SDS011;18022;45.492;11.548;2022-11-13T14:58:26;20.08;;;12.40;;
31390;SDS011;18022;45.492;11.548;2022-11-13T15:00:53;19.23;;;15.88;;
31390;SDS011;18022;45.492;11.548;2022-11-13T15:03:21;14.38;;;11.48;;
31390;SDS011;18022;45.492;11.548;2022-11-13T15:05:47;14.60;;;10.00;;
31390;SDS011;18022;45.492;11.548;2022-11-13T15:08:13;13.00;;;8.65;;
31390;SDS011;18022;45.492;11.548;2022-11-13T15:10:39;10.73;;;8.43;;
31390;SDS011;18022;45.492;11.548;2022-11-13T15:13:12;12.55;;;8.05;;
31390;SDS011;18022;45.492;11.548;2022-11-13T15:15:39;10.65;;;8.40;;
31390;SDS011;18022;45.492;11.548;2022-11-13T15:18:05;12.82;;;8.85;;
31390;SDS011;18022;45.492;11.548;2022-11-13T15:20:33;11.80;;;8.68;;
31390;SDS011;18022;45.492;11.548;2022-11-13T15:22:59;9.45;;;8.48;;
31390;SDS011;18022;45.492;11.548;2022-11-13T15:25:25;10.00;;;8.77;;
31390;SDS011;18022;45.492;11.548;2022-11-13T15:27:50;16.60;;;11.70;;
31390;SDS011;18022;45.492;11.548;2022-11-13T15:30:17;12.18;;;10.20;;
31390;SDS011;18022;45.492;11.548;2022-11-13T15:32:43;12.00;;;9.13;;
31390;SDS011;18022;45.492;11.548;2022-11-13T15:35:12;10.68;;;8.23;;
31390;SDS011;18022;45.492;11.548;2022-11-13T15:37:39;14.65;;;8.93;;
31390;SDS011;18022;45.492;11.548;2022-11-13T15:40:05;10.02;;;8.98;;
31390;SDS011;18022;45.492;11.548;2022-11-13T15:42:32;11.38;;;7.50;;
31390;SDS011;18022;45.492;11.548;2022-11-13T15:44:59;15.05;;;11.15;;
31390;SDS011;18022;45.492;11.548;2022-11-13T15:47:26;14.60;;;10.93;;
31390;SDS011;18022;45.492;11.548;2022-11-13T15:49:54;14.40;;;10.48;;
31390;SDS011;18022;45.492;11.548;2022-11-13T15:52:21;11.93;;;10.68;;
31390;SDS011;18022;45.492;11.548;2022-11-13T15:54:47;12.57;;;11.27;;
31390;SDS011;18022;45.492;11.548;2022-11-13T15:57:21;14.00;;;12.68;;
31390;SDS011;18022;45.492;11.548;2022-11-13T15:59:48;16.80;;;14.98;;
31390;SDS011;18022;45.492;11.548;2022-11-13T16:02:14;15.55;;;13.57;;
31390;SDS011;18022;45.492;11.548;2022-11-13T16:04:40;22.05;;;18.00;;
31390;SDS011;18022;45.492;11.548;2022-11-13T16:07:17;14.63;;;13.23;;
31390;SDS011;18022;45.492;11.548;2022-11-13T16:09:47;16.75;;;13.80;;
31390;SDS011;18022;45.492;11.548;2022-11-13T16:12:12;15.57;;;14.10;;
31390;SDS011;18022;45.492;11.548;2022-11-13T16:14:38;16.90;;;13.68;;
31390;SDS011;18022;45.492;11.548;2022-11-13T16:17:05;17.02;;;13.70;;
31390;SDS011;18022;45.492;11.548;2022-11-13T16:19:36;17.60;;;14.25;;
31390;SDS011;18022;45.492;11.548;2022-11-13T16:22:04;16.03;;;14.27;;
31390;SDS011;18022;45.492;11.548;2022-11-13T16:24:43;15.57;;;13.82;;
31390;SDS011;18022;45.492;11.548;2022-11-13T16:27:11;16.15;;;14.45;;
31390;SDS011;18022;45.492;11.548;2022-11-13T16:29:39;15.32;;;13.80;;
31390;SDS011;18022;45.492;11.548;2022-11-13T16:32:04;15.65;;;13.05;;
31390;SDS011;18022;45.492;11.548;2022-11-13T16:34:33;15.18;;;13.57;;
31390;SDS011;18022;45.492;11.548;2022-11-13T16:36:59;15.50;;;13.90;;
31390;SDS011;18022;45.492;11.548;2022-11-13T16:39:25;15.10;;;13.55;;
31390;SDS011;18022;45.492;11.548;2022-11-13T16:41:51;15.35;;;13.75;;